Terminal Aerodrome Forecast
Issued by NWS

Home | Current Version | Previous Version | Text Only | Print | Product List | Glossary On
Versions: 1 2 3 4 5 6 7 8 9 10 11 12 13 14 15 16
838
FTUS43 KAPX 250532
TAFTVC
TAF
KTVC 250532Z 2506/2606 04006KT 6SM -RA BR SCT008 OVC015
     FM251000 07008KT P6SM OVC022
     FM251700 08012G21KT P6SM BKN035
     FM252000 10013KT P6SM VCSH BKN015
     FM260000 09010G20KT P6SM -RA OVC015
     FM260200 09010G20KT 5SM -RA BR OVC008
     FM260500 10010G21KT 3SM -RA BR OVC008=

USA.gov is the U.S. government's official web portal to all federal, state and local government web resources and services.